createdAt,value
2022-11-14T00:00:53.134Z,25.80
2022-11-14T00:01:53.314Z,28.00
2022-11-14T00:02:53.526Z,23.70
2022-11-14T00:03:53.676Z,26.00
2022-11-14T00:04:53.847Z,27.40
2022-11-14T00:05:54.022Z,27.60
2022-11-14T00:06:54.253Z,26.70
2022-11-14T00:07:54.373Z,23.80
2022-11-14T00:08:54.562Z,25.20
2022-11-14T00:09:54.743Z,27.80
2022-11-14T00:10:54.911Z,27.10
2022-11-14T00:11:55.101Z,24.30
2022-11-14T00:12:55.273Z,25.50
2022-11-14T00:13:55.463Z,27.50
2022-11-14T00:14:55.603Z,27.70
2022-11-14T00:15:55.783Z,29.50
2022-11-14T00:16:55.951Z,25.00
2022-11-14T00:17:56.130Z,27.60
2022-11-14T00:18:56.321Z,26.10
2022-11-14T00:19:56.501Z,27.00
2022-11-14T00:20:56.687Z,28.30
2022-11-14T00:21:56.871Z,26.30
2022-11-14T00:22:57.041Z,27.80
2022-11-14T00:23:57.279Z,26.50
2022-11-14T00:24:57.391Z,25.60
2022-11-14T00:25:57.561Z,27.70
2022-11-14T00:26:57.748Z,30.10
2022-11-14T00:27:57.922Z,29.20
2022-11-14T00:28:58.110Z,27.30
2022-11-14T00:29:58.259Z,27.20
2022-11-14T00:30:58.438Z,27.10
2022-11-14T00:31:58.623Z,28.20
2022-11-14T00:32:58.790Z,27.50
2022-11-14T00:33:58.979Z,27.60
2022-11-14T00:34:59.134Z,27.00
2022-11-14T00:35:59.309Z,28.20
2022-11-14T00:36:59.501Z,28.30
2022-11-14T00:37:59.669Z,28.40
2022-11-14T00:38:59.867Z,30.30
2022-11-14T00:40:00.061Z,27.70
2022-11-14T00:41:00.228Z,26.10
2022-11-14T00:42:00.410Z,31.70
2022-11-14T00:43:00.593Z,29.20
2022-11-14T00:44:00.788Z,28.20
2022-11-14T00:45:00.928Z,26.30
2022-11-14T00:46:01.110Z,27.50
2022-11-14T00:47:01.289Z,30.00
2022-11-14T00:48:01.469Z,30.10
2022-11-14T00:49:01.658Z,27.10
2022-11-14T00:50:01.815Z,28.00
2022-11-14T00:51:02.003Z,30.60
2022-11-14T00:52:02.173Z,30.50
2022-11-14T00:53:02.340Z,29.10
2022-11-14T00:54:02.539Z,26.00
2022-11-14T00:55:02.707Z,31.80
2022-11-14T00:56:02.885Z,30.90
2022-11-14T00:57:03.074Z,30.10
2022-11-14T00:58:03.247Z,31.10
2022-11-14T00:59:03.440Z,27.60
2022-11-14T01:00:03.587Z,26.30
2022-11-14T01:01:03.828Z,32.70
2022-11-14T01:02:03.947Z,29.10
2022-11-14T01:03:04.131Z,31.30
2022-11-14T01:04:04.309Z,30.00
2022-11-14T01:05:04.480Z,27.10
2022-11-14T01:06:04.656Z,33.00
2022-11-14T01:07:04.836Z,31.00
2022-11-14T01:08:05.026Z,30.50
2022-11-14T01:09:05.256Z,30.30
2022-11-14T01:10:05.356Z,27.70
2022-11-14T01:11:05.536Z,29.90
2022-11-14T01:12:05.721Z,30.90
2022-11-14T01:13:05.903Z,32.00
2022-11-14T01:14:06.076Z,30.10
2022-11-14T01:15:06.256Z,29.40
2022-11-14T01:16:06.426Z,30.40
2022-11-14T01:17:06.607Z,28.70
2022-11-14T01:18:06.806Z,27.40
2022-11-14T01:19:07.546Z,29.10
2022-11-14T01:20:07.114Z,31.00
2022-11-14T01:21:07.286Z,31.60
2022-11-14T01:22:07.483Z,29.50
2022-11-14T01:23:07.624Z,27.30
2022-11-14T01:24:07.803Z,27.80
2022-11-14T01:25:07.975Z,30.20
2022-11-14T01:26:08.147Z,30.50
2022-11-14T01:27:08.344Z,28.60
2022-11-14T01:28:08.484Z,29.60
2022-11-14T01:29:08.657Z,28.10
2022-11-14T01:30:08.836Z,28.20
2022-11-14T01:31:09.021Z,31.00
2022-11-14T01:32:09.195Z,29.50
2022-11-14T01:33:09.384Z,28.00
2022-11-14T01:34:09.564Z,25.90
2022-11-14T01:35:09.754Z,27.50
2022-11-14T01:36:09.915Z,31.30
2022-11-14T01:37:10.113Z,30.00
2022-11-14T01:38:10.291Z,30.20
2022-11-14T01:39:10.468Z,26.40
2022-11-14T01:40:10.653Z,27.40
2022-11-14T01:41:10.833Z,30.30
2022-11-14T01:42:11.014Z,31.00
2022-11-14T01:43:11.248Z,30.50
2022-11-14T01:44:11.385Z,29.60
2022-11-14T01:45:11.578Z,27.40
2022-11-14T01:46:11.754Z,30.00
2022-11-14T01:47:11.952Z,31.30
2022-11-14T01:48:12.093Z,30.20
2022-11-14T01:49:12.283Z,28.60
2022-11-14T01:50:12.434Z,28.20
2022-11-14T01:51:12.613Z,29.50
2022-11-14T01:52:12.803Z,31.10
2022-11-14T01:53:12.955Z,29.60
2022-11-14T01:54:13.133Z,29.60
2022-11-14T01:55:13.314Z,25.30
2022-11-14T01:56:13.501Z,29.10
2022-11-14T01:57:13.702Z,28.80
2022-11-14T01:58:13.853Z,30.90
2022-11-14T01:59:14.036Z,31.10
2022-11-14T02:00:14.233Z,29.50
2022-11-14T02:01:14.452Z,28.20
2022-11-14T02:02:14.603Z,25.80
2022-11-14T02:03:14.757Z,31.60
2022-11-14T02:04:15.330Z,31.30
2022-11-14T02:05:15.105Z,30.40
2022-11-14T02:06:15.284Z,30.10
2022-11-14T02:07:15.504Z,28.30
2022-11-14T02:08:15.662Z,30.20
2022-11-14T02:09:15.832Z,31.00
2022-11-14T02:10:16.013Z,30.70
2022-11-14T02:11:16.191Z,29.60
2022-11-14T02:12:16.387Z,30.80
2022-11-14T02:13:16.523Z,29.90
2022-11-14T02:14:16.705Z,30.70
2022-11-14T02:15:16.880Z,30.90
2022-11-14T02:16:17.070Z,31.20
2022-11-14T02:17:32.676Z,31.20
2022-11-14T02:18:18.432Z,31.90
2022-11-14T02:19:17.605Z,31.90
2022-11-14T02:20:17.783Z,30.70
2022-11-14T02:21:17.962Z,31.80
2022-11-14T02:22:18.160Z,31.80
2022-11-14T02:23:18.310Z,33.20
2022-11-14T02:24:18.492Z,29.90
2022-11-14T02:25:18.670Z,31.10
2022-11-14T02:26:18.860Z,33.90
2022-11-14T02:27:19.062Z,31.50
2022-11-14T02:28:19.210Z,32.80
2022-11-14T02:29:19.391Z,31.30
2022-11-14T02:30:19.581Z,30.70
2022-11-14T02:31:19.761Z,28.90
2022-11-14T02:32:19.963Z,30.70
2022-11-14T02:33:20.112Z,31.70
2022-11-14T02:34:20.345Z,31.40
2022-11-14T02:35:20.469Z,31.10
2022-11-14T02:36:20.649Z,31.60
2022-11-14T02:37:20.850Z,30.60
2022-11-14T02:38:20.998Z,30.60
2022-11-14T02:39:21.180Z,32.30
2022-11-14T02:40:21.368Z,31.20
2022-11-14T02:41:21.549Z,31.20
2022-11-14T02:42:21.750Z,31.70
2022-11-14T02:43:21.901Z,31.50
2022-11-14T02:44:22.100Z,30.00
2022-11-14T02:45:22.239Z,30.00
2022-11-14T02:46:22.420Z,31.90
2022-11-14T02:47:22.627Z,32.80
2022-11-14T02:48:22.778Z,32.40
2022-11-14T02:49:22.959Z,31.30
2022-11-14T02:50:23.149Z,30.20
2022-11-14T02:51:23.370Z,31.40
2022-11-14T02:52:23.612Z,31.10
2022-11-14T02:53:23.670Z,32.70
2022-11-14T02:54:23.818Z,30.20
2022-11-14T02:55:24.008Z,31.00
2022-11-14T02:56:24.190Z,32.20
2022-11-14T02:57:24.437Z,32.70
2022-11-14T02:58:24.559Z,29.40
2022-11-14T02:59:24.749Z,31.80
2022-11-14T03:00:24.974Z,29.90
2022-11-14T03:01:25.100Z,30.30
2022-11-14T03:02:25.248Z,30.30
2022-11-14T03:03:25.398Z,31.10
2022-11-14T03:04:25.588Z,31.30
2022-11-14T03:05:25.777Z,30.30
2022-11-14T03:06:25.959Z,32.80
2022-11-14T03:07:26.231Z,31.70
2022-11-14T03:08:26.449Z,31.00
2022-11-14T03:09:26.487Z,30.70
2022-11-14T03:10:26.668Z,32.50
2022-11-14T03:11:26.847Z,31.20
2022-11-14T03:12:27.049Z,31.20
2022-11-14T03:13:27.198Z,33.30
2022-11-14T03:14:27.380Z,31.30
2022-11-14T03:15:27.566Z,31.00
2022-11-14T03:16:27.767Z,34.10
2022-11-14T03:17:27.925Z,30.40
2022-11-14T03:18:28.529Z,30.50
2022-11-14T03:19:28.286Z,30.80
2022-11-14T03:20:28.473Z,30.90
2022-11-14T03:21:28.666Z,29.60
2022-11-14T03:22:28.814Z,29.30
2022-11-14T03:23:28.997Z,30.00
2022-11-14T03:24:29.186Z,31.30
2022-11-14T03:25:29.377Z,29.50
2022-11-14T03:26:29.557Z,32.70
2022-11-14T03:27:29.716Z,31.00
2022-11-14T03:28:30.254Z,29.50
2022-11-14T03:29:30.088Z,30.20
2022-11-14T03:30:30.265Z,30.60
2022-11-14T03:31:30.470Z,29.30
2022-11-14T03:32:30.615Z,31.30
2022-11-14T03:33:30.805Z,28.50
2022-11-14T03:34:30.989Z,29.60
2022-11-14T03:35:31.166Z,31.40
2022-11-14T03:36:31.369Z,31.30
2022-11-14T03:37:31.517Z,33.00
2022-11-14T03:38:31.993Z,33.20
2022-11-14T03:39:31.958Z,30.60
2022-11-14T03:40:32.048Z,29.90
2022-11-14T03:41:32.245Z,31.20
2022-11-14T03:42:32.405Z,33.70
2022-11-14T03:43:32.567Z,27.20
2022-11-14T03:44:32.716Z,31.40
2022-11-14T03:45:32.905Z,32.20
2022-11-14T03:46:33.105Z,31.20
2022-11-14T03:47:33.253Z,31.10
2022-11-14T03:48:33.666Z,31.40
2022-11-14T03:49:33.621Z,29.50
2022-11-14T03:50:33.799Z,29.60
2022-11-14T03:51:33.995Z,29.30
2022-11-14T03:52:34.150Z,30.70
2022-11-14T03:53:34.358Z,28.40
2022-11-14T03:54:34.507Z,29.20
2022-11-14T03:55:34.699Z,29.20
2022-11-14T03:56:34.889Z,30.50
2022-11-14T03:57:35.076Z,30.50
2022-11-14T03:58:35.256Z,30.20
2022-11-14T03:59:35.444Z,32.00
2022-11-14T04:00:35.645Z,29.70
2022-11-14T04:01:35.822Z,29.60
2022-11-14T04:02:35.965Z,30.40
2022-11-14T04:03:36.155Z,32.00
2022-11-14T04:04:36.335Z,29.60
2022-11-14T04:05:36.522Z,29.60
2022-11-14T04:06:36.725Z,30.30
2022-11-14T04:07:36.879Z,30.30
2022-11-14T04:08:37.060Z,32.80
2022-11-14T04:09:37.275Z,28.30
2022-11-14T04:10:37.439Z,29.10
2022-11-14T04:11:37.594Z,29.50
2022-11-14T04:12:37.751Z,30.50
2022-11-14T04:13:37.937Z,31.50
2022-11-14T04:14:38.127Z,28.50
2022-11-14T04:15:38.315Z,27.70
2022-11-14T04:16:38.525Z,29.60
2022-11-14T04:17:40.082Z,31.10
2022-11-14T04:18:38.849Z,29.80
2022-11-14T04:19:39.003Z,29.70
2022-11-14T04:20:39.184Z,29.20
2022-11-14T04:21:39.367Z,30.30
2022-11-14T04:22:39.506Z,28.60
2022-11-14T04:23:39.684Z,29.10
2022-11-14T04:24:39.865Z,29.10
2022-11-14T04:25:40.055Z,31.10
2022-11-14T04:26:40.264Z,29.90
2022-11-14T04:27:40.442Z,30.10
2022-11-14T04:28:40.585Z,29.20
2022-11-14T04:29:40.772Z,26.80
2022-11-14T04:30:40.954Z,29.80
2022-11-14T04:31:41.155Z,28.70
2022-11-14T04:32:41.313Z,29.90
2022-11-14T04:33:41.472Z,31.50
2022-11-14T04:34:41.650Z,28.20
2022-11-14T04:35:41.843Z,29.10
2022-11-14T04:36:42.012Z,30.80
2022-11-14T04:37:42.164Z,28.40
2022-11-14T04:38:42.325Z,30.60
2022-11-14T04:39:42.511Z,27.90
2022-11-14T04:40:42.692Z,30.20
2022-11-14T04:41:42.899Z,28.90
2022-11-14T04:42:43.052Z,28.60
2022-11-14T04:43:48.057Z,27.60
2022-11-14T04:44:44.438Z,28.70
2022-11-14T04:45:43.562Z,29.30
2022-11-14T04:46:43.762Z,28.50
2022-11-14T04:47:43.914Z,30.50
2022-11-14T04:48:44.091Z,29.00
2022-11-14T04:49:44.284Z,28.10
2022-11-14T04:50:44.432Z,28.70
2022-11-14T04:51:44.651Z,29.70
2022-11-14T04:52:44.792Z,29.80
2022-11-14T04:53:44.983Z,30.50
2022-11-14T04:54:45.131Z,28.70
2022-11-14T04:55:45.335Z,30.10
2022-11-14T04:56:45.491Z,29.00
2022-11-14T04:57:45.642Z,27.40
2022-11-14T04:58:45.832Z,28.10
2022-11-14T04:59:46.012Z,31.70
2022-11-14T05:00:46.211Z,30.40
2022-11-14T05:01:46.424Z,30.60
2022-11-14T05:02:46.532Z,30.70
2022-11-14T05:03:46.730Z,29.80
2022-11-14T05:04:46.901Z,28.60
2022-11-14T05:05:47.101Z,28.00
2022-11-14T05:06:47.283Z,30.30
2022-11-14T05:07:47.451Z,32.30
2022-11-14T05:08:47.600Z,29.40
2022-11-14T05:09:47.791Z,32.00
2022-11-14T05:10:47.994Z,30.60
2022-11-14T05:11:48.169Z,29.90
2022-11-14T05:12:48.325Z,29.00
2022-11-14T05:13:48.511Z,29.00
2022-11-14T05:14:48.697Z,29.70
2022-11-14T05:15:48.871Z,29.10
2022-11-14T05:16:49.019Z,28.10
2022-11-14T05:17:49.217Z,34.10
2022-11-14T05:18:49.392Z,32.60
2022-11-14T05:19:49.529Z,27.80
2022-11-14T05:20:49.729Z,27.30
2022-11-14T05:21:49.897Z,30.20
2022-11-14T05:22:50.059Z,31.60
2022-11-14T05:23:50.250Z,33.10
2022-11-14T05:24:50.440Z,30.90
2022-11-14T05:25:53.570Z,30.50
2022-11-14T05:26:51.779Z,28.30
2022-11-14T05:27:50.959Z,28.30
2022-11-14T05:28:51.149Z,29.10
2022-11-14T05:29:51.338Z,29.80
2022-11-14T05:30:51.547Z,29.40
2022-11-14T05:31:51.689Z,30.60
2022-11-14T05:32:51.887Z,29.20
2022-11-14T05:33:52.039Z,29.80
2022-11-14T05:34:52.211Z,32.30
2022-11-14T05:35:52.409Z,30.70
2022-11-14T05:36:52.570Z,29.60
2022-11-14T05:37:57.405Z,33.10
2022-11-14T05:38:53.889Z,28.60
2022-11-14T05:39:53.068Z,27.60
2022-11-14T05:40:53.247Z,30.20
2022-11-14T05:41:53.411Z,30.80
2022-11-14T05:42:53.579Z,28.90
2022-11-14T05:43:53.777Z,28.40
2022-11-14T05:44:53.921Z,30.20
2022-11-14T05:45:54.128Z,29.20
2022-11-14T05:46:54.281Z,31.90
2022-11-14T05:47:54.468Z,30.70
2022-11-14T05:48:54.658Z,33.30
2022-11-14T05:49:54.833Z,29.10
2022-11-14T05:50:54.991Z,29.90
2022-11-14T05:51:55.688Z,28.10
2022-11-14T05:52:55.316Z,31.40
2022-11-14T05:53:55.520Z,32.00
2022-11-14T05:54:55.657Z,31.20
2022-11-14T05:55:55.867Z,28.50
2022-11-14T05:56:56.017Z,28.70
2022-11-14T05:57:56.198Z,28.00
2022-11-14T05:58:56.380Z,31.30
2022-11-14T05:59:56.557Z,30.20
2022-11-14T06:00:56.776Z,31.60
2022-11-14T06:01:57.005Z,27.60
2022-11-14T06:02:57.071Z,30.10
2022-11-14T06:03:57.256Z,30.80
2022-11-14T06:04:57.407Z,30.10
2022-11-14T06:05:57.597Z,27.10
2022-11-14T06:06:57.795Z,29.50
2022-11-14T06:07:57.937Z,30.50
2022-11-14T06:08:58.107Z,33.40
2022-11-14T06:09:58.279Z,32.70
2022-11-14T06:10:58.507Z,28.70
2022-11-14T06:11:58.646Z,28.20
2022-11-14T06:12:58.936Z,29.80
2022-11-14T06:13:59.003Z,29.50
2022-11-14T06:14:59.177Z,30.70
2022-11-14T06:15:59.357Z,31.90
2022-11-14T06:16:59.541Z,29.60
2022-11-14T06:17:59.716Z,31.70
2022-11-14T06:18:59.885Z,28.80
2022-11-14T06:20:00.077Z,29.60
2022-11-14T06:21:00.284Z,29.70
2022-11-14T06:22:00.426Z,29.10
2022-11-14T06:23:00.576Z,30.20
2022-11-14T06:24:00.766Z,28.00
2022-11-14T06:25:00.999Z,31.20
2022-11-14T06:26:01.104Z,31.70
2022-11-14T06:27:01.255Z,30.00
2022-11-14T06:28:01.433Z,28.50
2022-11-14T06:29:01.597Z,31.20
2022-11-14T06:30:01.777Z,29.50
2022-11-14T06:31:01.945Z,29.10
2022-11-14T06:32:02.095Z,31.00
2022-11-14T06:33:02.265Z,28.70
2022-11-14T06:34:02.434Z,30.40
2022-11-14T06:35:02.595Z,30.50
2022-11-14T06:36:02.788Z,31.30
2022-11-14T06:37:02.954Z,29.10
2022-11-14T06:38:03.119Z,30.90
2022-11-14T06:39:03.290Z,31.40
2022-11-14T06:40:03.482Z,30.50
2022-11-14T06:41:03.655Z,28.20
2022-11-14T06:42:03.804Z,29.70
2022-11-14T06:43:03.965Z,31.10
2022-11-14T06:44:04.144Z,30.20
2022-11-14T06:45:04.304Z,30.90
2022-11-14T06:46:04.494Z,30.00
2022-11-14T06:47:04.673Z,30.20
2022-11-14T06:48:04.834Z,33.90
2022-11-14T06:49:04.993Z,28.50
2022-11-14T06:50:05.164Z,28.40
2022-11-14T06:51:05.338Z,31.70
2022-11-14T06:52:05.507Z,30.00
2022-11-14T06:53:05.678Z,31.50
2022-11-14T06:54:05.842Z,31.30
2022-11-14T06:55:06.012Z,27.30
2022-11-14T06:56:06.204Z,29.40
2022-11-14T06:57:06.345Z,31.40
2022-11-14T06:58:06.551Z,31.40
2022-11-14T06:59:06.672Z,32.60
2022-11-14T07:00:06.860Z,30.50
2022-11-14T07:01:07.079Z,32.50
2022-11-14T07:02:07.238Z,32.10
2022-11-14T07:03:07.486Z,31.40
2022-11-14T07:04:07.562Z,32.40
2022-11-14T07:05:07.755Z,33.40
2022-11-14T07:06:08.011Z,29.90
2022-11-14T07:07:08.158Z,30.90
2022-11-14T07:08:08.274Z,31.10
2022-11-14T07:09:08.458Z,30.60
2022-11-14T07:10:08.611Z,29.60
2022-11-14T07:11:08.802Z,31.30
2022-11-14T07:12:08.970Z,29.40
2022-11-14T07:13:09.143Z,28.30
2022-11-14T07:14:09.312Z,30.60
2022-11-14T07:15:09.482Z,30.50
2022-11-14T07:16:09.663Z,29.90
2022-11-14T07:17:09.831Z,30.60
2022-11-14T07:18:10.023Z,32.10
2022-11-14T07:19:10.183Z,30.10
2022-11-14T07:20:10.351Z,33.00
2022-11-14T07:21:10.542Z,28.90
2022-11-14T07:22:10.710Z,31.50
2022-11-14T07:23:10.880Z,30.00
2022-11-14T07:24:11.040Z,30.00
2022-11-14T07:25:11.213Z,31.50
2022-11-14T07:26:11.416Z,28.70
2022-11-14T07:27:11.570Z,28.90
2022-11-14T07:28:11.760Z,31.60
2022-11-14T07:29:11.941Z,29.40
2022-11-14T07:30:12.111Z,31.40
2022-11-14T07:31:12.300Z,30.60
2022-11-14T07:32:12.472Z,30.50
2022-11-14T07:33:12.649Z,31.50
2022-11-14T07:34:12.820Z,30.10
2022-11-14T07:35:13.031Z,30.40
2022-11-14T07:36:13.198Z,31.30
2022-11-14T07:37:13.370Z,29.30
2022-11-14T07:38:13.549Z,30.00
2022-11-14T07:39:13.719Z,30.50
2022-11-14T07:40:13.900Z,31.90
2022-11-14T07:41:14.093Z,30.80
2022-11-14T07:42:14.260Z,30.50
2022-11-14T07:43:14.488Z,30.20
2022-11-14T07:44:14.619Z,30.50
2022-11-14T07:45:14.792Z,31.50
2022-11-14T07:46:14.982Z,28.70
2022-11-14T07:47:15.148Z,29.60
2022-11-14T07:48:15.320Z,29.10
2022-11-14T07:49:15.497Z,28.80
2022-11-14T07:50:20.249Z,28.90
2022-11-14T07:51:16.867Z,29.30
2022-11-14T07:52:16.016Z,32.30
2022-11-14T07:53:16.180Z,28.40
2022-11-14T07:54:16.379Z,29.30
2022-11-14T07:55:16.528Z,30.50
2022-11-14T07:56:16.721Z,30.00
2022-11-14T07:57:16.891Z,27.40
2022-11-14T07:58:17.067Z,27.70
2022-11-14T07:59:17.248Z,30.60
2022-11-14T08:00:17.436Z,28.90
2022-11-14T08:01:17.696Z,28.60
2022-11-14T08:02:17.779Z,29.40
2022-11-14T08:03:17.961Z,30.40
2022-11-14T08:04:18.120Z,30.70
2022-11-14T08:05:18.306Z,29.20
2022-11-14T08:06:18.487Z,29.00
2022-11-14T08:07:18.681Z,28.90
2022-11-14T08:08:18.838Z,27.90
2022-11-14T08:09:19.016Z,28.30
2022-11-14T08:10:19.219Z,28.60
2022-11-14T08:11:31.684Z,30.10
2022-11-14T08:12:20.549Z,28.20
2022-11-14T08:13:35.115Z,29.10
2022-11-14T08:14:20.900Z,28.30
2022-11-14T08:15:20.077Z,27.80
2022-11-14T08:16:20.257Z,29.90
2022-11-14T08:17:20.438Z,26.80
2022-11-14T08:18:20.609Z,29.30
2022-11-14T08:19:20.778Z,26.80
2022-11-14T08:20:20.967Z,26.60
2022-11-14T08:21:21.147Z,27.90
2022-11-14T08:22:21.324Z,26.40
2022-11-14T08:23:21.496Z,26.80
2022-11-14T08:24:21.667Z,29.40
2022-11-14T08:25:21.844Z,24.50
2022-11-14T08:26:22.029Z,27.10
2022-11-14T08:27:22.256Z,27.00
2022-11-14T08:28:22.379Z,27.60
2022-11-14T08:29:22.549Z,29.40
2022-11-14T08:30:22.727Z,28.90
2022-11-14T08:31:22.914Z,27.20
2022-11-14T08:32:23.084Z,28.10
2022-11-14T08:33:23.287Z,26.40
2022-11-14T08:34:23.406Z,25.30
2022-11-14T08:35:23.583Z,27.20
2022-11-14T08:36:23.758Z,27.00
2022-11-14T08:37:23.927Z,25.60
2022-11-14T08:38:24.096Z,26.30
2022-11-14T08:39:24.270Z,25.60
2022-11-14T08:40:24.503Z,25.50
2022-11-14T08:41:24.628Z,26.10
2022-11-14T08:42:24.807Z,26.00
2022-11-14T08:43:24.981Z,25.90
2022-11-14T08:44:25.159Z,25.30
2022-11-14T08:45:25.331Z,25.00
2022-11-14T08:46:25.537Z,25.70
2022-11-14T08:47:25.676Z,28.10
2022-11-14T08:48:25.848Z,25.30
2022-11-14T08:49:26.018Z,24.50
2022-11-14T08:50:26.211Z,27.00
2022-11-14T08:51:26.377Z,25.40
2022-11-14T08:52:26.548Z,25.10
2022-11-14T08:53:26.731Z,26.20
2022-11-14T08:54:26.908Z,27.10
2022-11-14T08:55:27.102Z,25.60
2022-11-14T08:56:27.267Z,24.70
2022-11-14T08:57:27.438Z,26.70
2022-11-14T08:58:27.976Z,26.50
2022-11-14T08:59:27.776Z,24.60
2022-11-14T09:00:27.957Z,25.20
2022-11-14T09:01:28.129Z,24.50
2022-11-14T09:02:28.338Z,25.30
2022-11-14T09:03:28.535Z,27.10
2022-11-14T09:04:28.937Z,25.60
2022-11-14T09:05:28.857Z,27.10
2022-11-14T09:06:29.047Z,25.90
2022-11-14T09:07:29.308Z,25.40
2022-11-14T09:08:29.918Z,26.50
2022-11-14T09:09:29.537Z,25.50
2022-11-14T09:10:29.729Z,24.50
2022-11-14T09:11:29.896Z,25.70
2022-11-14T09:12:30.067Z,26.30
2022-11-14T09:13:30.552Z,24.70
2022-11-14T09:14:30.398Z,25.70
2022-11-14T09:15:30.606Z,26.20
2022-11-14T09:16:30.758Z,24.80
2022-11-14T09:17:30.918Z,27.60
2022-11-14T09:18:31.549Z,27.70
2022-11-14T09:19:31.278Z,25.00
2022-11-14T09:20:35.097Z,25.60
2022-11-14T09:21:32.620Z,25.30
2022-11-14T09:22:31.801Z,26.60
2022-11-14T09:23:32.478Z,26.40
2022-11-14T09:24:32.149Z,24.80
2022-11-14T09:25:32.358Z,27.90
2022-11-14T09:26:32.518Z,27.10
2022-11-14T09:27:32.679Z,26.10
2022-11-14T09:28:32.899Z,25.90
2022-11-14T09:29:33.031Z,28.30
2022-11-14T09:30:33.208Z,27.00
2022-11-14T09:31:33.434Z,27.50
2022-11-14T09:32:33.575Z,26.50
2022-11-14T09:33:33.779Z,27.30
2022-11-14T09:34:33.938Z,26.30
2022-11-14T09:35:34.158Z,26.70
2022-11-14T09:36:34.288Z,26.50
2022-11-14T09:37:34.458Z,27.30
2022-11-14T09:38:38.489Z,24.50
2022-11-14T09:39:34.827Z,27.10
2022-11-14T09:40:35.036Z,25.80
2022-11-14T09:41:35.158Z,25.90
2022-11-14T09:42:35.330Z,26.90
2022-11-14T09:43:35.499Z,27.20
2022-11-14T09:44:35.669Z,26.30
2022-11-14T09:45:35.858Z,27.10
2022-11-14T09:46:36.027Z,25.80
2022-11-14T09:47:36.197Z,26.20
2022-11-14T09:48:36.382Z,25.80
2022-11-14T09:49:36.559Z,26.50
2022-11-14T09:50:36.755Z,27.30
2022-11-14T09:51:36.928Z,26.10
2022-11-14T09:52:37.087Z,25.30
2022-11-14T09:53:37.271Z,24.40
2022-11-14T09:54:37.458Z,28.10
2022-11-14T09:55:37.703Z,25.50
2022-11-14T09:56:37.777Z,25.80
2022-11-14T09:57:37.948Z,25.80
2022-11-14T09:58:38.127Z,27.60
2022-11-14T09:59:38.308Z,26.00
2022-11-14T10:00:38.488Z,24.40
2022-11-14T10:01:38.731Z,24.80
2022-11-14T10:02:38.807Z,26.00
2022-11-14T10:03:38.979Z,23.50
2022-11-14T10:04:39.159Z,24.90
2022-11-14T10:05:39.435Z,25.00
2022-11-14T10:06:39.539Z,23.50
2022-11-14T10:07:39.688Z,23.10
2022-11-14T10:08:39.865Z,23.90
2022-11-14T10:09:40.041Z,23.60
2022-11-14T10:10:40.247Z,23.90
2022-11-14T10:11:40.397Z,23.10
2022-11-14T10:12:40.568Z,20.80
2022-11-14T10:13:40.737Z,23.40
2022-11-14T10:14:40.949Z,23.50
2022-11-14T10:15:41.097Z,23.50
2022-11-14T10:16:41.257Z,23.30
2022-11-14T10:17:41.435Z,22.10
2022-11-14T10:18:41.606Z,20.90
2022-11-14T10:19:42.980Z,20.80
2022-11-14T10:20:41.957Z,22.40
2022-11-14T10:21:42.149Z,21.80
2022-11-14T10:22:42.340Z,22.20
2022-11-14T10:23:42.509Z,20.80
2022-11-14T10:24:42.677Z,21.20
2022-11-14T10:25:44.389Z,20.50
2022-11-14T10:26:43.027Z,21.90
2022-11-14T10:27:43.219Z,22.30
2022-11-14T10:28:43.396Z,19.30
2022-11-14T10:29:43.622Z,20.10
2022-11-14T10:30:43.771Z,20.20
2022-11-14T10:31:43.949Z,19.40
2022-11-14T10:32:44.117Z,20.10
2022-11-14T10:33:44.296Z,20.30
2022-11-14T10:34:44.466Z,21.20
2022-11-14T10:35:44.660Z,20.80
2022-11-14T10:36:44.818Z,19.50
2022-11-14T10:37:44.998Z,19.60
2022-11-14T10:38:45.179Z,20.10
2022-11-14T10:39:45.337Z,19.00
2022-11-14T10:40:45.528Z,19.40
2022-11-14T10:42:06.225Z,19.40
2022-11-14T10:42:46.878Z,18.60
2022-11-14T10:43:46.055Z,20.90
2022-11-14T10:44:46.257Z,20.60
2022-11-14T10:45:46.397Z,21.10
2022-11-14T10:46:46.581Z,22.00
2022-11-14T10:47:46.755Z,22.60
2022-11-14T10:48:46.927Z,22.00
2022-11-14T10:49:47.107Z,20.70
2022-11-14T10:50:47.275Z,21.90
2022-11-14T10:51:47.463Z,20.40
2022-11-14T10:52:47.627Z,21.70
2022-11-14T10:53:47.808Z,21.40
2022-11-14T10:54:47.990Z,20.90
2022-11-14T10:56:03.747Z,20.80
2022-11-14T10:56:49.353Z,21.40
2022-11-14T10:57:48.528Z,19.30
2022-11-14T10:58:49.968Z,21.10
2022-11-14T10:59:48.865Z,19.30
2022-11-14T11:00:49.111Z,21.00
2022-11-14T11:01:49.239Z,21.10
2022-11-14T11:02:49.413Z,19.00
2022-11-14T11:03:49.639Z,19.70
2022-11-14T11:04:49.747Z,19.20
2022-11-14T11:05:49.945Z,18.50
2022-11-14T11:06:50.186Z,21.40
2022-11-14T11:07:50.286Z,17.40
2022-11-14T11:08:50.886Z,18.30
2022-11-14T11:09:50.652Z,17.70
2022-11-14T11:10:50.843Z,18.90
2022-11-14T11:11:50.987Z,17.90
2022-11-14T11:12:51.195Z,17.80
2022-11-14T11:13:51.337Z,18.80
2022-11-14T11:14:51.536Z,18.80
2022-11-14T11:15:51.717Z,17.80
2022-11-14T11:16:51.876Z,18.50
2022-11-14T11:17:52.047Z,18.20
2022-11-14T11:18:52.218Z,17.10
2022-11-14T11:19:52.406Z,16.20
2022-11-14T11:20:52.680Z,16.50
2022-11-14T11:21:52.948Z,17.60
2022-11-14T11:22:52.936Z,18.60
2022-11-14T11:23:53.117Z,17.20
2022-11-14T11:24:53.294Z,17.20
2022-11-14T11:25:53.515Z,16.40
2022-11-14T11:26:53.647Z,18.40
2022-11-14T11:27:53.818Z,17.40
2022-11-14T11:28:53.995Z,18.50
2022-11-14T11:29:54.202Z,16.70
2022-11-14T11:30:54.609Z,17.50
2022-11-14T11:31:54.505Z,17.30
2022-11-14T11:32:54.706Z,17.10
2022-11-14T11:33:54.866Z,17.60
2022-11-14T11:34:55.046Z,16.70
2022-11-14T11:35:55.217Z,16.70
2022-11-14T11:36:55.405Z,19.00
2022-11-14T11:37:55.565Z,17.90
2022-11-14T11:38:55.749Z,17.40
2022-11-14T11:39:55.915Z,19.10
2022-11-14T11:40:56.116Z,18.80
2022-11-14T11:42:11.711Z,17.30
2022-11-14T11:43:57.629Z,17.80
2022-11-14T11:44:56.799Z,17.60
2022-11-14T11:45:56.991Z,17.80
2022-11-14T11:46:57.146Z,16.70
2022-11-14T11:47:57.315Z,17.30
2022-11-14T11:48:57.495Z,16.80
2022-11-14T11:49:57.674Z,16.00
2022-11-14T11:50:57.857Z,17.60
2022-11-14T11:51:58.034Z,16.70
2022-11-14T11:52:58.205Z,17.00
2022-11-14T11:53:58.376Z,17.80
2022-11-14T11:54:58.555Z,17.20
2022-11-14T11:55:58.735Z,16.70
2022-11-14T11:56:58.943Z,15.70
2022-11-14T11:57:59.095Z,13.40
2022-11-14T11:58:59.255Z,16.70
2022-11-14T11:59:59.432Z,14.50
2022-11-14T12:00:59.622Z,14.30
2022-11-14T12:01:59.791Z,14.50
2022-11-14T12:03:00.173Z,16.60
2022-11-14T12:04:00.186Z,14.00
2022-11-14T12:05:00.316Z,15.90
2022-11-14T12:06:00.504Z,15.00
2022-11-14T12:07:00.702Z,16.30
2022-11-14T12:08:00.850Z,14.40
2022-11-14T12:09:01.022Z,15.70
2022-11-14T12:10:10.191Z,15.40
2022-11-14T12:11:02.376Z,15.80
2022-11-14T12:12:01.535Z,15.70
2022-11-14T12:13:01.722Z,15.30
2022-11-14T12:14:01.885Z,15.50
2022-11-14T12:15:02.084Z,16.40
2022-11-14T12:16:02.275Z,15.50
2022-11-14T12:17:02.442Z,15.40
2022-11-14T12:18:02.611Z,16.30
2022-11-14T12:19:02.797Z,16.40
2022-11-14T12:20:02.979Z,16.40
2022-11-14T12:21:03.167Z,16.50
2022-11-14T12:22:03.341Z,16.00
2022-11-14T12:23:03.506Z,14.80
2022-11-14T12:24:03.675Z,15.80
2022-11-14T12:25:03.872Z,15.60
2022-11-14T12:26:04.035Z,16.20
2022-11-14T12:27:04.196Z,15.90
2022-11-14T12:28:04.488Z,15.90
2022-11-14T12:29:04.554Z,16.30
2022-11-14T12:30:04.728Z,15.70
2022-11-14T12:31:04.923Z,15.90
2022-11-14T12:32:05.102Z,14.30
2022-11-14T12:33:05.261Z,14.30
2022-11-14T12:34:05.429Z,15.40
2022-11-14T12:35:05.674Z,15.70
2022-11-14T12:36:05.798Z,14.80
2022-11-14T12:37:06.001Z,15.20
2022-11-14T12:38:06.148Z,15.00
2022-11-14T12:39:06.328Z,15.90
2022-11-14T12:40:06.495Z,15.20
2022-11-14T12:41:06.702Z,14.90
2022-11-14T12:42:06.842Z,14.80
2022-11-14T12:43:07.016Z,14.70
2022-11-14T12:44:07.229Z,16.20
2022-11-14T12:45:07.356Z,14.90
2022-11-14T12:46:07.549Z,15.20
2022-11-14T12:47:07.716Z,15.00
2022-11-14T12:48:07.886Z,15.00
2022-11-14T12:49:08.055Z,14.90
2022-11-14T12:50:08.234Z,14.00
2022-11-14T12:51:08.476Z,16.00
2022-11-14T12:52:08.576Z,14.60
2022-11-14T12:53:08.755Z,14.60
2022-11-14T12:54:08.947Z,14.30
2022-11-14T12:55:09.115Z,14.40
2022-11-14T12:56:09.316Z,15.30